Flight Number: EUR2189 Duration: 2:30
Departure: Munich Int'l (EDDM) at 08:00 Distance: 850 Nm
Arrival: Istanbul / Ataturk (LTBA) at 10:30 Equipment: B737

Weather Information
Munchen, Germany (EDDM) 48-21N 011-47E May 23, 2018 - 08:20 PM EDT / 2018.05.24 0020 UTC
Wind: from the WNW (300 degrees) at 2 MPH (2 KT):0
Visibility: greater than 7 mile(s):0
Sky conditions: mostly cloudy Weather: showers in the vicinity; Cumulonimbus clouds observed Temperature: 59 F (15 C) Dew Point: 55 F (13 C) Relative Humidity: 87% Pressure (altimeter): 30.03 in. Hg (1017 hPa)
ob: EDDM 240020Z 30002KT 9999 VCSH FEW016 SCT030CB BKN100 15/13 Q1017 NOSIG cycle: 0
Sunrise: 03:26 Sunset: 18:53 (UTC)

Istanbul / Ataturk, Turkey (LTBA) 40-58N 028-49E 37M May 23, 2018 - 08:20 PM EDT / 2018.05.24 0020 UTC
Wind: from the NE (050 degrees) at 8 MPH (7 KT):0
Visibility: greater than 7 mile(s):0
Sky conditions: mostly cloudy Temperature: 68 F (20 C) Dew Point: 60 F (16 C) Relative Humidity: 77% Pressure (altimeter): 29.97 in. Hg (1015 hPa)
ob: LTBA 240020Z 05007KT 9999 BKN031 20/16 Q1015 NOSIG cycle: 0
Sunrise: 02:42 Sunset: 17:20 (UTC)

TAF:2018/05/23 18:03 TAF LTBA 231640Z 2318/2424 02012KT 9999 SCT030 BECMG 2320/2324 SCT015 BKN025 BECMG 2406/2410 SCT035 TEMPO 2412/2416 03015G25KT BECMG 2415/2418 BKN030 BKN090 PROB30 2420/2424 -SHRA

Previous Pireps for this route
Date Aircraft Flight time Fuel used Landing rate On time
2013-04-20B73703.0716852-170No
2013-08-20B73702.3213497-96Yes
2014-03-01B73702.3018452-316Yes
2015-01-12B73702.1012545-250Yes
2015-02-13B74702.3748364-578Charter
2015-04-24B74702.0548934-164Charter
2015-05-02B7772.24510030Charter
2015-05-26B7373.30115000Charter
2015-09-14B77702.3831217-366Charter
2017-01-20B73702.121157649Yes
(pireps marked green are flown by you)

Route map